New Kingston, NY

8:29 PM EST en Noviembre 24, 2014 (GMT -0500)
ON TOP OF THE RIDGE | Change Station
CLOSE
Current Station
Estación meteorológica personal
Location: Halcott Center, NY
Altura: 2257 ft
Estaciones meteorológicas cercanas
Aviso en curso: Winter Storm Watch, Wind Advisory Aviso activo: Record Report

Alt 2257 ft 42.21 °N, 74.48 °W | Updated 9 minutes ago

Parcialmente nublado
Parcialmente nublado
57.2 ° F
Sensación térmica 57.2 ° F
N
13.0
Viento Variable Viento desde SO
Gusts 17.0 mph

Hoy
Alta -- | Baja -- ° F
--% Posibilidad de precipitaciones
Ayer
Alta -- | Baja -- ° F
Precip. -- pul
6:59 AM 4:30 PM
Creciente, 8% visible
Presión 29.66 pul
Visibilidad 10.0 Millas
Nubes Despejado
Punto de rocío 54 ° F
Humedad 89%
Precipitaciones 0.37 pul
Espesor de la nieve No disponible.
UV 0 de una escala de 12
Polen .10 de una escala de 12
Calidad del aire No disponible.
Flu Activity No disponible.
METAR KMSV 250115Z AUTO 21009G15KT 10SM CLR 14/11 A2966 RMK AO1

More Conditions Fewer Conditions

Presión 29.66 pul
Visibilidad 10.0 Millas
Nubes Despejado
Punto de rocío 54 ° F
Humedad 89%
Precipitaciones 0.37 pul
Espesor de la nieve No disponible.
UV 0 de una escala de 12
Polen .10 de una escala de 12
Calidad del aire No disponible.
Flu Activity No disponible.
METAR KMSV 250115Z AUTO 21009G15KT 10SM CLR 14/11 A2966 RMK AO1

More Conditions Fewer Conditions

10-Day Weather Forecast

Almanac

Astronomía

Nov. 24, 2014 Salida Puesta
Hora real
Crepúsculo civil
Crepúsculo náutico
Crepúsculo astronómico
Luna
Horas de luz
Horas de luz
Tomorrow will be .
, % of the Moon is Illuminated

Extremos de hoy

Máximos del estado Bajos del estado

Community

WunderPhotos

Upload Photos

1,773,457 ¡fotos cargadas!

WunderBlogs® & News

Nearby

Calidad del aire

  Calidad del aire Índice AQ Contaminante
Not available.

Grosos de nieve

Estación Profundido Altura

Actividad de terremotos

Ciudad Distance Mag. Tiempo y dato
Magnitud mínima muestra es 2,5.

Temperaturas de aguas costeras

Lugar Temperatura

Estaciones meteorológicas cercanas